sensor_id;sensor_type;location;lat;lon;timestamp;pressure;altitude;pressure_sealevel;temperature;humidity
13476;BME280;6810;63.824;20.288;2024-03-08T00:01:12;103009.84;;;-2.60;73.53
13476;BME280;6810;63.824;20.288;2024-03-08T00:03:59;103010.69;;;-2.61;74.13
13476;BME280;6810;63.824;20.288;2024-03-08T00:06:46;102994.94;;;-2.64;72.88
13476;BME280;6810;63.824;20.288;2024-03-08T00:09:33;103004.47;;;-2.64;73.06
13476;BME280;6810;63.824;20.288;2024-03-08T00:12:20;102999.22;;;-2.66;73.65
13476;BME280;6810;63.824;20.288;2024-03-08T00:15:08;102970.81;;;-2.83;74.07
13476;BME280;6810;63.824;20.288;2024-03-08T00:17:55;102999.16;;;-2.67;74.21
13476;BME280;6810;63.824;20.288;2024-03-08T00:20:42;102994.78;;;-2.68;73.36
13476;BME280;6810;63.824;20.288;2024-03-08T00:23:29;102984.97;;;-2.77;74.08
13476;BME280;6810;63.824;20.288;2024-03-08T00:26:16;102996.50;;;-2.69;73.12
13476;BME280;6810;63.824;20.288;2024-03-08T00:29:03;102943.41;;;-2.97;73.40
13476;BME280;6810;63.824;20.288;2024-03-08T00:31:50;103001.63;;;-2.72;72.89
13476;BME280;6810;63.824;20.288;2024-03-08T00:34:37;102991.00;;;-2.78;73.99
13476;BME280;6810;63.824;20.288;2024-03-08T00:37:24;102924.59;;;-3.14;73.34
13476;BME280;6810;63.824;20.288;2024-03-08T00:40:11;102993.59;;;-2.78;72.88
13476;BME280;6810;63.824;20.288;2024-03-08T00:42:59;102993.50;;;-2.81;73.89
13476;BME280;6810;63.824;20.288;2024-03-08T00:45:45;103008.28;;;-2.81;74.01
13476;BME280;6810;63.824;20.288;2024-03-08T00:48:32;103004.69;;;-2.85;74.05
13476;BME280;6810;63.824;20.288;2024-03-08T00:51:19;102995.97;;;-2.85;72.87
13476;BME280;6810;63.824;20.288;2024-03-08T00:54:06;102995.00;;;-2.89;73.33
13476;BME280;6810;63.824;20.288;2024-03-08T00:56:53;103001.78;;;-2.94;73.68
13476;BME280;6810;63.824;20.288;2024-03-08T00:59:40;103005.25;;;-2.93;73.22
13476;BME280;6810;63.824;20.288;2024-03-08T01:02:27;102994.72;;;-2.96;74.08
13476;BME280;6810;63.824;20.288;2024-03-08T01:05:14;103002.50;;;-2.98;73.37
13476;BME280;6810;63.824;20.288;2024-03-08T01:08:01;102988.50;;;-3.01;74.28
13476;BME280;6810;63.824;20.288;2024-03-08T01:10:48;102997.13;;;-3.02;72.98
13476;BME280;6810;63.824;20.288;2024-03-08T01:13:35;103003.97;;;-3.06;74.21
13476;BME280;6810;63.824;20.288;2024-03-08T01:16:22;102990.63;;;-3.15;74.17
13476;BME280;6810;63.824;20.288;2024-03-08T01:19:09;103008.19;;;-3.09;73.11
13476;BME280;6810;63.824;20.288;2024-03-08T01:21:56;102998.56;;;-3.12;73.68
13476;BME280;6810;63.824;20.288;2024-03-08T01:24:43;103005.44;;;-3.14;73.00
13476;BME280;6810;63.824;20.288;2024-03-08T01:27:30;103009.72;;;-3.16;73.77
13476;BME280;6810;63.824;20.288;2024-03-08T01:30:17;103013.13;;;-3.18;74.09
13476;BME280;6810;63.824;20.288;2024-03-08T01:33:04;103004.38;;;-3.19;72.97
13476;BME280;6810;63.824;20.288;2024-03-08T01:35:52;103000.72;;;-3.24;73.71
13476;BME280;6810;63.824;20.288;2024-03-08T01:38:39;103011.06;;;-3.27;73.04
13476;BME280;6810;63.824;20.288;2024-03-08T01:41:06;103015.50;;;-3.24;73.30
13476;BME280;6810;63.824;20.288;2024-03-08T01:43:33;103007.59;;;-3.27;73.59
13476;BME280;6810;63.824;20.288;2024-03-08T01:46:00;103003.13;;;-3.30;72.85
13476;BME280;6810;63.824;20.288;2024-03-08T01:48:48;102987.91;;;-3.43;73.79
13476;BME280;6810;63.824;20.288;2024-03-08T01:51:35;102998.59;;;-3.35;74.31
13476;BME280;6810;63.824;20.288;2024-03-08T01:54:22;102990.69;;;-3.38;74.25
13476;BME280;6810;63.824;20.288;2024-03-08T01:57:10;103000.25;;;-3.37;73.37
13476;BME280;6810;63.824;20.288;2024-03-08T01:59:57;103002.81;;;-3.39;73.93
13476;BME280;6810;63.824;20.288;2024-03-08T02:02:25;103005.38;;;-3.40;73.91
13476;BME280;6810;63.824;20.288;2024-03-08T02:04:53;102962.78;;;-3.66;72.76
13476;BME280;6810;63.824;20.288;2024-03-08T02:07:43;103005.22;;;-3.45;74.02
13476;BME280;6810;63.824;20.288;2024-03-08T02:10:30;102999.06;;;-3.47;72.90
13476;BME280;6810;63.824;20.288;2024-03-08T02:13:17;102963.66;;;-3.66;73.48
13476;BME280;6810;63.824;20.288;2024-03-08T02:16:04;102991.09;;;-3.51;74.07
13476;BME280;6810;63.824;20.288;2024-03-08T02:19:11;102997.06;;;-3.54;73.52
13476;BME280;6810;63.824;20.288;2024-03-08T02:21:58;102956.88;;;-3.86;73.45
13476;BME280;6810;63.824;20.288;2024-03-08T02:24:45;103000.41;;;-3.58;73.18
13476;BME280;6810;63.824;20.288;2024-03-08T02:27:32;102987.72;;;-3.73;72.87
13476;BME280;6810;63.824;20.288;2024-03-08T02:30:19;103002.00;;;-3.62;73.52
13476;BME280;6810;63.824;20.288;2024-03-08T02:33:06;103006.28;;;-3.64;73.16
13476;BME280;6810;63.824;20.288;2024-03-08T02:35:53;103005.41;;;-3.64;73.40
13476;BME280;6810;63.824;20.288;2024-03-08T02:38:40;102994.03;;;-3.66;73.41
13476;BME280;6810;63.824;20.288;2024-03-08T02:41:27;102994.78;;;-3.70;73.22
13476;BME280;6810;63.824;20.288;2024-03-08T02:44:14;102996.59;;;-3.68;73.00
13476;BME280;6810;63.824;20.288;2024-03-08T02:47:01;102994.78;;;-3.70;73.64
13476;BME280;6810;63.824;20.288;2024-03-08T02:49:52;102992.97;;;-3.71;73.93
13476;BME280;6810;63.824;20.288;2024-03-08T02:52:38;102996.38;;;-3.74;73.80
13476;BME280;6810;63.824;20.288;2024-03-08T02:55:25;102976.03;;;-3.84;74.26
13476;BME280;6810;63.824;20.288;2024-03-08T02:58:12;102998.91;;;-3.75;72.99
13476;BME280;6810;63.824;20.288;2024-03-08T03:00:59;103002.31;;;-3.78;74.41
13476;BME280;6810;63.824;20.288;2024-03-08T03:03:46;103010.94;;;-3.79;73.79
13476;BME280;6810;63.824;20.288;2024-03-08T03:06:33;103004.81;;;-3.81;73.52
13476;BME280;6810;63.824;20.288;2024-03-08T03:09:20;103016.03;;;-3.82;74.21
13476;BME280;6810;63.824;20.288;2024-03-08T03:12:08;103019.47;;;-3.83;74.18
13476;BME280;6810;63.824;20.288;2024-03-08T03:14:55;103018.63;;;-3.82;74.45
13476;BME280;6810;63.824;20.288;2024-03-08T03:17:49;103025.59;;;-3.82;73.26
13476;BME280;6810;63.824;20.288;2024-03-08T03:20:39;103025.59;;;-3.82;74.04
13476;BME280;6810;63.824;20.288;2024-03-08T03:23:29;103021.19;;;-3.83;74.16
13476;BME280;6810;63.824;20.288;2024-03-08T03:26:16;103020.50;;;-3.79;73.56
13476;BME280;6810;63.824;20.288;2024-03-08T03:29:03;103022.13;;;-3.81;74.02
13476;BME280;6810;63.824;20.288;2024-03-08T03:31:50;103023.75;;;-3.85;73.49
13476;BME280;6810;63.824;20.288;2024-03-08T03:34:37;103040.53;;;-3.77;74.57
13476;BME280;6810;63.824;20.288;2024-03-08T03:37:25;103034.50;;;-3.76;73.42
13476;BME280;6810;63.824;20.288;2024-03-08T03:40:12;103036.28;;;-3.75;74.13
13476;BME280;6810;63.824;20.288;2024-03-08T03:42:59;103044.09;;;-3.75;73.74
13476;BME280;6810;63.824;20.288;2024-03-08T03:45:46;103035.28;;;-3.78;73.23
13476;BME280;6810;63.824;20.288;2024-03-08T03:48:33;103039.81;;;-3.73;74.11
13476;BME280;6810;63.824;20.288;2024-03-08T03:51:20;103041.59;;;-3.72;74.13
13476;BME280;6810;63.824;20.288;2024-03-08T03:54:07;103017.94;;;-3.78;74.46
13476;BME280;6810;63.824;20.288;2024-03-08T03:56:54;103042.59;;;-3.68;74.24
13476;BME280;6810;63.824;20.288;2024-03-08T03:59:41;103040.88;;;-3.68;73.58
13476;BME280;6810;63.824;20.288;2024-03-08T04:02:38;103042.63;;;-3.67;73.31
13476;BME280;6810;63.824;20.288;2024-03-08T04:05:26;103036.63;;;-3.66;73.98
13476;BME280;6810;63.824;20.288;2024-03-08T04:08:13;103025.97;;;-3.72;74.05
13476;BME280;6810;63.824;20.288;2024-03-08T04:11:00;103042.75;;;-3.64;74.14
13476;BME280;6810;63.824;20.288;2024-03-08T04:13:47;103035.88;;;-3.62;74.17
13476;BME280;6810;63.824;20.288;2024-03-08T04:16:34;103042.75;;;-3.64;74.45
13476;BME280;6810;63.824;20.288;2024-03-08T04:19:21;103033.34;;;-3.60;74.08
13476;BME280;6810;63.824;20.288;2024-03-08T04:22:08;103042.09;;;-3.58;73.91
13476;BME280;6810;63.824;20.288;2024-03-08T04:24:55;103038.66;;;-3.57;74.09
13476;BME280;6810;63.824;20.288;2024-03-08T04:27:42;103034.22;;;-3.60;73.74
13476;BME280;6810;63.824;20.288;2024-03-08T04:30:29;103038.75;;;-3.54;74.36
13476;BME280;6810;63.824;20.288;2024-03-08T04:33:15;103035.41;;;-3.51;73.25
13476;BME280;6810;63.824;20.288;2024-03-08T04:36:03;103034.56;;;-3.50;74.62
13476;BME280;6810;63.824;20.288;2024-03-08T04:38:50;103038.13;;;-3.48;74.71
13476;BME280;6810;63.824;20.288;2024-03-08T04:41:37;103041.66;;;-3.46;74.14
13476;BME280;6810;63.824;20.288;2024-03-08T04:44:24;103045.19;;;-3.44;73.67
13476;BME280;6810;63.824;20.288;2024-03-08T04:47:11;103033.78;;;-3.48;73.76
13476;BME280;6810;63.824;20.288;2024-03-08T04:49:38;103039.25;;;-3.40;73.84
13476;BME280;6810;63.824;20.288;2024-03-08T04:52:25;103041.84;;;-3.40;74.37
13476;BME280;6810;63.824;20.288;2024-03-08T04:55:12;103040.25;;;-3.37;74.91
13476;BME280;6810;63.824;20.288;2024-03-08T04:57:59;103028.81;;;-3.40;74.86
13476;BME280;6810;63.824;20.288;2024-03-08T05:00:46;103034.34;;;-3.31;74.68
13476;BME280;6810;63.824;20.288;2024-03-08T05:03:33;103028.34;;;-3.30;74.58
13476;BME280;6810;63.824;20.288;2024-03-08T05:06:21;103030.16;;;-3.28;73.89
13476;BME280;6810;63.824;20.288;2024-03-08T05:09:08;103032.84;;;-3.25;74.85
13476;BME280;6810;63.824;20.288;2024-03-08T05:12:00;103040.72;;;-3.23;74.35
13476;BME280;6810;63.824;20.288;2024-03-08T05:14:47;103033.88;;;-3.21;73.64
13476;BME280;6810;63.824;20.288;2024-03-08T05:17:37;103018.13;;;-3.24;73.47
13476;BME280;6810;63.824;20.288;2024-03-08T05:20:24;103036.63;;;-3.17;74.73
13476;BME280;6810;63.824;20.288;2024-03-08T05:23:11;103034.06;;;-3.15;74.11
13476;BME280;6810;63.824;20.288;2024-03-08T05:25:58;103023.75;;;-3.12;74.14
13476;BME280;6810;63.824;20.288;2024-03-08T05:28:45;103029.06;;;-3.09;73.64
13476;BME280;6810;63.824;20.288;2024-03-08T05:31:51;103036.16;;;-3.05;74.10
13476;BME280;6810;63.824;20.288;2024-03-08T05:34:38;103036.31;;;-3.01;73.74
13476;BME280;6810;63.824;20.288;2024-03-08T05:37:25;103040.81;;;-2.97;74.71
13476;BME280;6810;63.824;20.288;2024-03-08T05:40:12;103035.69;;;-2.94;74.05
13476;BME280;6810;63.824;20.288;2024-03-08T05:42:44;103039.34;;;-2.89;73.82
13476;BME280;6810;63.824;20.288;2024-03-08T05:45:31;103030.63;;;-2.89;73.80
13476;BME280;6810;63.824;20.288;2024-03-08T05:48:18;103046.63;;;-2.79;74.97
13476;BME280;6810;63.824;20.288;2024-03-08T05:51:05;103045.06;;;-2.74;75.12
13476;BME280;6810;63.824;20.288;2024-03-08T05:53:52;103038.25;;;-2.69;75.29
13476;BME280;6810;63.824;20.288;2024-03-08T05:56:43;103036.78;;;-2.61;74.75
13476;BME280;6810;63.824;20.288;2024-03-08T05:59:30;103043.94;;;-2.55;74.20
13476;BME280;6810;63.824;20.288;2024-03-08T06:02:17;103052.03;;;-2.48;75.34
13476;BME280;6810;63.824;20.288;2024-03-08T06:05:04;103047.84;;;-2.41;74.35
13476;BME280;6810;63.824;20.288;2024-03-08T06:07:51;103040.06;;;-2.40;74.89
13476;BME280;6810;63.824;20.288;2024-03-08T06:10:38;103054.44;;;-2.26;75.21
13476;BME280;6810;63.824;20.288;2024-03-08T06:13:25;103059.03;;;-2.19;75.74
13476;BME280;6810;63.824;20.288;2024-03-08T06:16:12;103048.75;;;-2.14;74.67
13476;BME280;6810;63.824;20.288;2024-03-08T06:18:59;103062.16;;;-2.02;74.84
13476;BME280;6810;63.824;20.288;2024-03-08T06:21:46;103048.47;;;-1.94;75.51
13476;BME280;6810;63.824;20.288;2024-03-08T06:24:33;103049.50;;;-1.89;75.64
13476;BME280;6810;63.824;20.288;2024-03-08T06:27:19;103049.75;;;-1.81;75.95
13476;BME280;6810;63.824;20.288;2024-03-08T06:30:07;103061.41;;;-1.70;75.56
13476;BME280;6810;63.824;20.288;2024-03-08T06:32:54;103061.56;;;-1.64;75.14
13476;BME280;6810;63.824;20.288;2024-03-08T06:35:41;103057.50;;;-1.54;75.73
13476;BME280;6810;63.824;20.288;2024-03-08T06:38:28;103064.66;;;-1.47;75.95
13476;BME280;6810;63.824;20.288;2024-03-08T06:41:15;103064.88;;;-1.40;75.48
13476;BME280;6810;63.824;20.288;2024-03-08T06:44:03;103067.75;;;-1.31;75.92
13476;BME280;6810;63.824;20.288;2024-03-08T06:46:50;103064.47;;;-1.24;75.70
13476;BME280;6810;63.824;20.288;2024-03-08T06:49:37;103066.38;;;-1.17;76.02
13476;BME280;6810;63.824;20.288;2024-03-08T06:52:24;103064.84;;;-1.10;75.94
13476;BME280;6810;63.824;20.288;2024-03-08T06:55:11;103063.28;;;-1.02;75.66
13476;BME280;6810;63.824;20.288;2024-03-08T06:57:58;103062.63;;;-0.95;76.00
13476;BME280;6810;63.824;20.288;2024-03-08T07:00:45;103066.31;;;-0.87;75.68
13476;BME280;6810;63.824;20.288;2024-03-08T07:03:32;103060.34;;;-0.82;76.17
13476;BME280;6810;63.824;20.288;2024-03-08T07:06:19;103060.53;;;-0.74;76.24
13476;BME280;6810;63.824;20.288;2024-03-08T07:09:06;103065.06;;;-0.67;76.06
13476;BME280;6810;63.824;20.288;2024-03-08T07:11:53;103038.66;;;-0.76;76.04
13476;BME280;6810;63.824;20.288;2024-03-08T07:14:40;103059.31;;;-0.54;76.30
13476;BME280;6810;63.824;20.288;2024-03-08T07:17:27;103029.38;;;-0.64;75.86
13476;BME280;6810;63.824;20.288;2024-03-08T07:20:14;103060.53;;;-0.40;76.67
13476;BME280;6810;63.824;20.288;2024-03-08T07:23:01;103061.59;;;-0.32;76.24
13476;BME280;6810;63.824;20.288;2024-03-08T07:25:48;103059.00;;;-0.31;76.11
13476;BME280;6810;63.824;20.288;2024-03-08T07:28:35;103058.38;;;-0.21;76.27
13476;BME280;6810;63.824;20.288;2024-03-08T07:31:22;103059.41;;;-0.14;76.36
13476;BME280;6810;63.824;20.288;2024-03-08T07:34:12;103049.06;;;-0.08;76.32
13476;BME280;6810;63.824;20.288;2024-03-08T07:36:59;103053.56;;;-0.01;76.42
13476;BME280;6810;63.824;20.288;2024-03-08T07:39:46;103054.59;;;0.06;76.50
13476;BME280;6810;63.824;20.288;2024-03-08T07:42:33;103058.22;;;0.11;76.44
13476;BME280;6810;63.824;20.288;2024-03-08T07:45:00;103061.81;;;0.17;76.84
13476;BME280;6810;63.824;20.288;2024-03-08T07:47:47;103050.50;;;0.18;76.66
13476;BME280;6810;63.824;20.288;2024-03-08T07:50:34;103060.38;;;0.31;77.08
13476;BME280;6810;63.824;20.288;2024-03-08T07:53:21;103059.66;;;0.37;76.80
13476;BME280;6810;63.824;20.288;2024-03-08T07:56:08;103058.88;;;0.42;76.65
13476;BME280;6810;63.824;20.288;2024-03-08T07:58:55;103064.25;;;0.48;76.75
13476;BME280;6810;63.824;20.288;2024-03-08T08:01:42;103059.16;;;0.56;76.47
13476;BME280;6810;63.824;20.288;2024-03-08T08:04:30;103060.16;;;0.62;77.22
13476;BME280;6810;63.824;20.288;2024-03-08T08:07:16;103064.63;;;0.68;76.73
13476;BME280;6810;63.824;20.288;2024-03-08T08:10:04;103063.00;;;0.73;76.91
13476;BME280;6810;63.824;20.288;2024-03-08T08:12:51;103058.81;;;0.82;77.20
13476;BME280;6810;63.824;20.288;2024-03-08T08:15:40;103065.03;;;0.89;77.28
13476;BME280;6810;63.824;20.288;2024-03-08T08:18:27;103064.31;;;0.96;76.61
13476;BME280;6810;63.824;20.288;2024-03-08T08:21:14;103071.44;;;1.03;76.72
13476;BME280;6810;63.824;20.288;2024-03-08T08:24:01;103071.56;;;1.10;76.94
13476;BME280;6810;63.824;20.288;2024-03-08T08:26:48;103072.59;;;1.17;76.74
13476;BME280;6810;63.824;20.288;2024-03-08T08:29:35;103072.72;;;1.24;77.08
13476;BME280;6810;63.824;20.288;2024-03-08T08:32:22;103064.00;;;1.27;76.92
13476;BME280;6810;63.824;20.288;2024-03-08T08:35:09;103063.28;;;1.35;76.93
13476;BME280;6810;63.824;20.288;2024-03-08T08:37:56;103077.47;;;1.45;77.30
13476;BME280;6810;63.824;20.288;2024-03-08T08:40:43;103082.81;;;1.51;77.20
13476;BME280;6810;63.824;20.288;2024-03-08T08:43:30;103066.19;;;1.53;76.74
13476;BME280;6810;63.824;20.288;2024-03-08T08:46:34;103071.66;;;1.65;77.44
13476;BME280;6810;63.824;20.288;2024-03-08T08:49:31;103079.66;;;1.73;77.32
13476;BME280;6810;63.824;20.288;2024-03-08T08:52:18;103074.50;;;1.79;77.57
13476;BME280;6810;63.824;20.288;2024-03-08T08:55:06;103073.72;;;1.85;77.35
13476;BME280;6810;63.824;20.288;2024-03-08T08:57:53;103071.13;;;1.86;76.86
13476;BME280;6810;63.824;20.288;2024-03-08T09:00:40;103055.34;;;1.86;76.31
13476;BME280;6810;63.824;20.288;2024-03-08T09:03:27;103063.41;;;1.98;77.43
13476;BME280;6810;63.824;20.288;2024-03-08T09:06:14;103069.66;;;2.06;77.14
13476;BME280;6810;63.824;20.288;2024-03-08T09:09:01;103072.41;;;2.15;76.21
13476;BME280;6810;63.824;20.288;2024-03-08T09:11:48;103076.00;;;2.22;77.40
13476;BME280;6810;63.824;20.288;2024-03-08T09:14:35;103080.50;;;2.29;76.78
13476;BME280;6810;63.824;20.288;2024-03-08T09:17:22;103074.41;;;2.34;76.34
13476;BME280;6810;63.824;20.288;2024-03-08T09:20:10;103081.53;;;2.41;76.23
13476;BME280;6810;63.824;20.288;2024-03-08T09:22:57;103080.72;;;2.47;76.33
13476;BME280;6810;63.824;20.288;2024-03-08T09:25:44;103071.16;;;2.52;75.92
13476;BME280;6810;63.824;20.288;2024-03-08T09:28:39;103072.94;;;2.56;77.28
13476;BME280;6810;63.824;20.288;2024-03-08T09:31:26;103076.56;;;2.64;76.54
13476;BME280;6810;63.824;20.288;2024-03-08T09:34:13;103068.69;;;2.67;76.36
13476;BME280;6810;63.824;20.288;2024-03-08T09:37:04;103068.78;;;2.74;75.87
13476;BME280;6810;63.824;20.288;2024-03-08T09:39:51;103068.81;;;2.77;76.08
13476;BME280;6810;63.824;20.288;2024-03-08T09:42:38;103082.06;;;2.85;76.44
13476;BME280;6810;63.824;20.288;2024-03-08T09:45:25;103075.09;;;2.90;76.85
13476;BME280;6810;63.824;20.288;2024-03-08T09:48:13;103069.88;;;2.93;76.48
13476;BME280;6810;63.824;20.288;2024-03-08T09:51:00;103068.19;;;2.99;76.20
13476;BME280;6810;63.824;20.288;2024-03-08T09:53:47;103068.22;;;3.04;76.85
13476;BME280;6810;63.824;20.288;2024-03-08T09:56:46;103055.91;;;3.03;76.49
13476;BME280;6810;63.824;20.288;2024-03-08T09:59:35;103072.72;;;3.14;75.23
13476;BME280;6810;63.824;20.288;2024-03-08T10:02:04;103066.59;;;3.18;76.70
13476;BME280;6810;63.824;20.288;2024-03-08T10:04:52;103065.78;;;3.22;75.12
13476;BME280;6810;63.824;20.288;2024-03-08T10:07:39;103057.91;;;3.28;76.66
13476;BME280;6810;63.824;20.288;2024-03-08T10:10:26;103066.75;;;3.31;75.92
13476;BME280;6810;63.824;20.288;2024-03-08T10:13:13;103063.25;;;3.35;76.46
13476;BME280;6810;63.824;20.288;2024-03-08T10:16:00;103059.78;;;3.41;75.06
13476;BME280;6810;63.824;20.288;2024-03-08T10:18:47;103062.44;;;3.42;76.46
13476;BME280;6810;63.824;20.288;2024-03-08T10:21:34;103066.91;;;3.49;76.08
13476;BME280;6810;63.824;20.288;2024-03-08T10:24:22;103068.66;;;3.52;75.95
13476;BME280;6810;63.824;20.288;2024-03-08T10:27:10;103046.63;;;3.42;75.50
13476;BME280;6810;63.824;20.288;2024-03-08T10:29:57;103059.00;;;3.51;75.52
13476;BME280;6810;63.824;20.288;2024-03-08T10:32:43;103058.19;;;3.59;75.45
13476;BME280;6810;63.824;20.288;2024-03-08T10:35:30;103065.25;;;3.64;75.89
13476;BME280;6810;63.824;20.288;2024-03-08T10:38:20;103060.00;;;3.67;75.92
13476;BME280;6810;63.824;20.288;2024-03-08T10:41:10;103051.19;;;3.63;75.57
13476;BME280;6810;63.824;20.288;2024-03-08T10:44:10;103057.44;;;3.74;75.22
13476;BME280;6810;63.824;20.288;2024-03-08T10:47:03;103049.53;;;3.76;74.38
13476;BME280;6810;63.824;20.288;2024-03-08T10:52:57;103050.44;;;3.84;73.97
13476;BME280;6810;63.824;20.288;2024-03-08T10:55:45;103054.88;;;3.86;75.01
13476;BME280;6810;63.824;20.288;2024-03-08T10:58:33;103050.50;;;3.88;74.33
13476;BME280;6810;63.824;20.288;2024-03-08T11:01:22;103052.25;;;3.91;73.77
13476;BME280;6810;63.824;20.288;2024-03-08T11:04:09;103048.75;;;3.93;75.36
13476;BME280;6810;63.824;20.288;2024-03-08T11:07:03;103038.16;;;3.89;73.61
13476;BME280;6810;63.824;20.288;2024-03-08T11:09:50;103050.56;;;3.97;74.85
13476;BME280;6810;63.824;20.288;2024-03-08T11:12:37;103041.75;;;3.98;75.09
13476;BME280;6810;63.824;20.288;2024-03-08T11:15:24;103053.22;;;4.00;73.96
13476;BME280;6810;63.824;20.288;2024-03-08T11:18:13;103048.78;;;4.02;74.31
13476;BME280;6810;63.824;20.288;2024-03-08T11:21:04;103050.59;;;4.03;74.55
13476;BME280;6810;63.824;20.288;2024-03-08T11:24:01;103053.22;;;4.05;74.14
13476;BME280;6810;63.824;20.288;2024-03-08T11:26:48;103048.81;;;4.05;73.67
13476;BME280;6810;63.824;20.288;2024-03-08T11:29:35;103054.09;;;4.07;73.13
13476;BME280;6810;63.824;20.288;2024-03-08T11:32:27;103055.00;;;4.07;74.06
13476;BME280;6810;63.824;20.288;2024-03-08T11:35:22;103056.75;;;4.07;72.81
13476;BME280;6810;63.824;20.288;2024-03-08T11:38:12;103050.59;;;4.06;74.13
13476;BME280;6810;63.824;20.288;2024-03-08T11:40:59;103056.75;;;4.07;72.79
13476;BME280;6810;63.824;20.288;2024-03-08T11:43:47;103054.09;;;4.07;73.13
13476;BME280;6810;63.824;20.288;2024-03-08T11:46:34;103062.00;;;4.07;72.67
13476;BME280;6810;63.824;20.288;2024-03-08T11:49:21;103051.44;;;4.02;73.54
13476;BME280;6810;63.824;20.288;2024-03-08T11:52:10;103062.00;;;4.07;72.56
13476;BME280;6810;63.824;20.288;2024-03-08T11:54:57;103049.69;;;4.03;73.04
13476;BME280;6810;63.824;20.288;2024-03-08T11:57:45;103050.59;;;4.08;73.82
13476;BME280;6810;63.824;20.288;2024-03-08T12:00:31;103053.25;;;4.08;72.47
13476;BME280;6810;63.824;20.288;2024-03-08T12:03:18;103062.91;;;4.07;72.84
13476;BME280;6810;63.824;20.288;2024-03-08T12:06:05;103053.25;;;4.06;73.33
13476;BME280;6810;63.824;20.288;2024-03-08T12:08:52;103054.97;;;4.06;73.32
13476;BME280;6810;63.824;20.288;2024-03-08T12:11:39;103050.59;;;4.05;71.96
13476;BME280;6810;63.824;20.288;2024-03-08T12:14:26;103051.44;;;4.04;72.07
13476;BME280;6810;63.824;20.288;2024-03-08T12:17:13;103047.06;;;4.03;71.74
13476;BME280;6810;63.824;20.288;2024-03-08T12:20:15;103046.16;;;4.02;72.57
13476;BME280;6810;63.824;20.288;2024-03-08T12:23:02;103049.69;;;4.03;71.67
13476;BME280;6810;63.824;20.288;2024-03-08T12:25:50;103045.28;;;4.02;72.89
13476;BME280;6810;63.824;20.288;2024-03-08T12:28:37;103043.53;;;4.02;72.80
13476;BME280;6810;63.824;20.288;2024-03-08T12:31:24;103036.47;;;3.95;72.28
13476;BME280;6810;63.824;20.288;2024-03-08T12:34:11;103047.94;;;4.03;72.81
13476;BME280;6810;63.824;20.288;2024-03-08T12:36:58;103047.94;;;4.03;72.29
13476;BME280;6810;63.824;20.288;2024-03-08T12:39:45;103047.94;;;4.03;71.60
13476;BME280;6810;63.824;20.288;2024-03-08T12:42:32;103040.88;;;4.02;72.34
13476;BME280;6810;63.824;20.288;2024-03-08T12:45:19;103036.50;;;4.03;72.10
13476;BME280;6810;63.824;20.288;2024-03-08T12:48:13;103034.75;;;4.02;71.67
13476;BME280;6810;63.824;20.288;2024-03-08T12:51:03;103030.31;;;4.02;72.25
13476;BME280;6810;63.824;20.288;2024-03-08T12:53:50;103039.13;;;4.03;71.86
13476;BME280;6810;63.824;20.288;2024-03-08T12:56:38;103020.66;;;4.00;72.51
13476;BME280;6810;63.824;20.288;2024-03-08T12:59:24;103030.31;;;4.02;71.49
13476;BME280;6810;63.824;20.288;2024-03-08T13:02:11;103028.56;;;4.01;72.56
13476;BME280;6810;63.824;20.288;2024-03-08T13:04:58;103022.41;;;3.99;71.40
13476;BME280;6810;63.824;20.288;2024-03-08T13:07:46;103027.66;;;3.99;70.95
13476;BME280;6810;63.824;20.288;2024-03-08T13:10:33;103026.81;;;3.99;71.70
13476;BME280;6810;63.824;20.288;2024-03-08T13:13:20;103018.88;;;3.97;71.85
13476;BME280;6810;63.824;20.288;2024-03-08T13:16:07;103022.38;;;3.95;71.24
13476;BME280;6810;63.824;20.288;2024-03-08T13:18:56;103018.00;;;3.95;71.41
13476;BME280;6810;63.824;20.288;2024-03-08T13:21:43;103022.38;;;3.95;71.43
13476;BME280;6810;63.824;20.288;2024-03-08T13:24:30;103018.88;;;3.93;71.19
13476;BME280;6810;63.824;20.288;2024-03-08T13:27:20;103020.63;;;3.94;71.43
13476;BME280;6810;63.824;20.288;2024-03-08T13:30:07;103012.69;;;3.92;71.30
13476;BME280;6810;63.824;20.288;2024-03-08T13:32:54;103008.31;;;3.91;71.09
13476;BME280;6810;63.824;20.288;2024-03-08T13:35:41;103020.59;;;3.91;71.88
13476;BME280;6810;63.824;20.288;2024-03-08T13:38:32;103013.56;;;3.90;71.57
13476;BME280;6810;63.824;20.288;2024-03-08T13:41:19;103015.31;;;3.88;71.64
13476;BME280;6810;63.824;20.288;2024-03-08T13:44:06;103007.41;;;3.88;70.82
13476;BME280;6810;63.824;20.288;2024-03-08T13:46:52;103010.94;;;3.88;71.01
13476;BME280;6810;63.824;20.288;2024-03-08T13:49:20;103003.88;;;3.87;71.22
13476;BME280;6810;63.824;20.288;2024-03-08T13:51:47;103006.47;;;3.84;70.96
13476;BME280;6810;63.824;20.288;2024-03-08T13:54:15;103006.50;;;3.86;70.99
13476;BME280;6810;63.824;20.288;2024-03-08T13:56:43;103003.00;;;3.85;71.61
13476;BME280;6810;63.824;20.288;2024-03-08T13:59:10;103000.31;;;3.82;71.56
13476;BME280;6810;63.824;20.288;2024-03-08T14:01:37;103002.94;;;3.84;70.67
13476;BME280;6810;63.824;20.288;2024-03-08T14:04:04;103006.47;;;3.84;71.32
13476;BME280;6810;63.824;20.288;2024-03-08T14:06:31;102978.28;;;3.70;71.50
13476;BME280;6810;63.824;20.288;2024-03-08T14:08:58;102997.66;;;3.82;71.81
13476;BME280;6810;63.824;20.288;2024-03-08T14:11:45;102995.91;;;3.81;70.76
13476;BME280;6810;63.824;20.288;2024-03-08T14:14:33;102989.75;;;3.79;71.72
13476;BME280;6810;63.824;20.288;2024-03-08T14:17:20;102975.66;;;3.70;70.67
13476;BME280;6810;63.824;20.288;2024-03-08T14:20:07;102992.38;;;3.76;71.62
13476;BME280;6810;63.824;20.288;2024-03-08T14:22:54;102996.78;;;3.74;71.30
13476;BME280;6810;63.824;20.288;2024-03-08T14:25:42;102995.88;;;3.74;70.45
13476;BME280;6810;63.824;20.288;2024-03-08T14:28:29;102999.41;;;3.73;71.52
13476;BME280;6810;63.824;20.288;2024-03-08T14:31:16;103002.03;;;3.71;70.78
13476;BME280;6810;63.824;20.288;2024-03-08T14:34:03;102993.19;;;3.66;70.91
13476;BME280;6810;63.824;20.288;2024-03-08T14:36:50;103001.09;;;3.68;70.51
13476;BME280;6810;63.824;20.288;2024-03-08T14:39:37;102996.72;;;3.65;70.82